LGTS/SKG METAR and TAF weather

Enter ICAO airport designator
Station Type Date Time Source
LGTS METAR 2021/09/16 10:50 UTC NOAA

LGTS 161050Z 33005KT 9999 FEW025 27/18 Q1017 NOSIG


Station Type Date Time Source
LGTS Decoded METAR 2021/09/16 10:50 UTC NOAA

Thessaloniki Airport , Greece (LGTS) 40-31N 022-58E 4M
Sep 16, 2021 - 06:50 AM EDT / 2021.09.16 1050 UTC
Wind: from the NNW (330 degrees) at 6 MPH (5 KT):0
Visibility: greater than 7 mile(s):0
Sky conditions: mostly clear
Temperature: 80 F (27 C)
Dew Point: 64 F (18 C)
Relative Humidity: 57%
Pressure (altimeter): 30.03 in. Hg (1017 hPa)
ob: LGTS 161050Z 33005KT 9999 FEW025 27/18 Q1017 NOSIG
cycle: 11

Station Type Date Time Source
LGTS TAF 2021/09/16 06:16 UTC NOAA

TAF LGTS 160500Z 1606/1706 VRB03KT 9999 FEW030
BECMG 1612/1614 17013KT
BECMG 1619/1621 VRB03KT

Example: see airport list